Terminal Aerodrome Forecast
Issued by NWS

Home | Current Version | Previous Version | Text Only | Print | Product List | Glossary Off
Versions: 1 2 3 4 5 6 7 8 9 10 11 12 13 14 15 16 17 18

592
FTUS43 KTOP 220520
TAFFOE
TAF
KFOE 220520Z 2206/2306 05011KT P6SM SCT200
     FM221100 08011KT P6SM SCT200
     FM221800 12012KT P6SM SCT040 BKN150
     FM222200 12012KT P6SM OVC035
     FM230500 13011KT P6SM OVC021=

USA.gov is the U.S. government's official web portal to all federal, state and local government web resources and services.